Data for 09/02/2007

Time Sea-Level Adjusted Pressure Absolute Pressure Temperature Relative Humidity Dew Point   
(mb) (inHg) (mb) (inHg) (C) (F) (%) (C) (F)
00:05 1020 30.12 849 25.07 22.2 71.9 28 3.1 37.6
00:10 1020 30.12 849 25.07 22.2 71.9 28 3 37.4
00:15 1020 30.12 849 25.07 22.3 72.1 28 3 37.4
00:20 1020 30.12 849 25.07 22.2 72 28 3.1 37.6
00:25 1020 30.12 849 25.07 22.1 71.7 28 2.9 37.2
00:30 1020 30.12 849 25.07 22.1 71.7 28 2.9 37.3
00:35 1020 30.12 849 25.07 22 71.5 28 2.9 37.2
00:40 1020 30.12 849 25.07 21.9 71.4 28 2.8 37
00:45 1020 30.12 849 25.07 21.8 71.3 28 2.7 36.9
00:50 1020 30.12 849 25.07 21.8 71.2 28 2.9 37.2
00:55 1020 30.12 849 25.07 21.7 71.1 28 2.7 36.8
01:00 1020 30.12 849 25.07 21.7 71 28 2.7 36.9
01:05 1020 30.12 849 25.07 21.6 71 28 2.7 36.9
01:10 1020 30.12 849 25.07 21.7 71 28 2.7 36.9
01:15 1020 30.12 849 25.07 21.6 70.8 28 2.7 36.8
01:20 1020 30.12 849 25.07 21.6 70.9 28 2.6 36.8
01:25 1020 30.12 849 25.07 21.6 70.8 28 2.6 36.7
01:30 1020 30.12 849 25.07 21.7 71 28 2.6 36.7
01:35 1020 30.12 849 25.07 21.7 71 28 2.7 36.8
01:40 1020 30.12 849 25.07 21.6 70.8 28 2.5 36.5
01:45 1020 30.12 849 25.07 21.6 70.8 28 2.5 36.4
01:50 1020 30.12 849 25.07 21.4 70.6 29 2.7 36.8
01:55 1020 30.12 849 25.07 21.4 70.5 29 2.8 37.1
02:00 1020 30.12 849 25.07 21.4 70.5 28 2.4 36.4
02:05 1020 30.12 849 25.07 21.3 70.3 28 2.2 36
02:10 1020 30.12 849 25.07 21.3 70.4 28 2.2 36
02:15 1020 30.12 849 25.07 21.2 70.2 28 2.2 36
02:20 1020 30.12 849 25.07 21.3 70.3 28 2.2 36
02:25 1020 30.12 849 25.07 21.2 70.2 28 2.2 35.9
02:30 1020 30.12 849 25.07 21.1 70 28 2.3 36.2
02:35 1020 30.12 849 25.07 21.1 69.9 28 2.2 36
02:40 1020 30.12 849 25.07 21 69.8 28 2.2 36
02:45 1020 30.12 849 25.07 21 69.7 29 2.3 36.1
02:50 1020 30.12 849 25.07 21 69.7 29 2.3 36.1
02:55 1020 30.12 849 25.07 20.9 69.6 29 2.2 36
03:00 1020 30.12 850 25.1 20.8 69.5 29 2.3 36.2
03:05 1020 30.12 850 25.1 20.6 69.1 29 2.3 36.1
03:10 1020 30.12 850 25.1 20.5 68.8 30 2.3 36.2
03:15 1020 30.12 850 25.1 20.2 68.3 30 2.3 36.1
03:20 1020 30.12 850 25.1 19.9 67.9 30 2.1 35.8
03:25 1020 30.12 850 25.1 19.8 67.7 31 2.2 35.9
03:30 1020 30.12 849 25.07 19.7 67.5 31 2.1 35.9
03:35 1020 30.12 850 25.1 19.6 67.3 31 2.1 35.8
03:40 1020 30.12 849 25.07 19.4 67 31 2.1 35.8
03:45 1020 30.12 850 25.1 19.3 66.8 31 2 35.7
03:50 1020 30.12 849 25.07 19.3 66.7 31 2.1 35.7
03:55 1020 30.12 850 25.1 19.1 66.4 32 2.2 35.9
04:00 1020 30.12 849 25.07 18.9 66 32 2.1 35.7
04:05 1020 30.12 850 25.1 18.9 66 32 2.1 35.8
04:10 1020 30.12 849 25.07 18.8 65.9 33 2.2 35.9
04:15 1020 30.12 849 25.07 18.8 65.9 33 2.2 36
04:20 1020 30.12 850 25.1 18.6 65.4 33 2.2 36
04:25 1020 30.12 850 25.1 18.3 64.9 34 2.2 35.9
04:30 1020 30.12 849 25.07 18.2 64.7 34 2.1 35.8
04:35 1020 30.12 850 25.1 18.2 64.7 34 2.1 35.9
04:40 1020 30.12 850 25.1 18.1 64.5 34 2.2 35.9
04:45 1020 30.12 849 25.07 18 64.4 34 2.2 36
04:50 1020 30.12 850 25.1 18 64.3 35 2.2 36
04:55 1020 30.12 849 25.07 17.9 64.2 35 2.3 36.1
05:00 1020 30.12 849 25.07 18 64.3 34 2.2 35.9
05:05 1020 30.12 849 25.07 18.1 64.5 35 2.4 36.3
05:10 1020 30.12 850 25.1 17.9 64.2 35 2.3 36.2
05:15 1020 30.12 850 25.1 17.7 63.9 36 2.4 36.4
05:20 1020 30.12 850 25.1 17.4 63.4 37 2.6 36.7
05:25 1020 30.12 850 25.1 17.4 63.2 37 2.7 36.8
05:30 1020 30.12 850 25.1 17.3 63.1 37 2.7 36.8
05:35 1020 30.12 850 25.1 17.3 63.2 37 2.7 36.8
05:40 1020 30.12 850 25.1 17.2 63 38 2.8 37.1
05:45 1021 30.15 850 25.1 17 62.7 38 2.8 37.1
05:50 1021 30.15 850 25.1 16.9 62.4 39 3 37.4
05:55 1021 30.15 850 25.1 16.6 61.8 40 3 37.4
06:00 1021 30.15 850 25.1 16.4 61.5 41 3.2 37.8
06:05 1021 30.15 850 25.1 16.2 61.1 41 3.1 37.7
06:10 1021 30.15 850 25.1 16.1 61 42 3.2 37.8
06:15 1021 30.15 850 25.1 16.1 60.9 41 3.1 37.5
06:20 1021 30.15 850 25.1 16.3 61.4 41 3.1 37.5
06:25 1021 30.15 850 25.1 16.5 61.7 41 3.2 37.7
06:30 1021 30.15 850 25.1 16.4 61.5 40 2.9 37.3
06:35 1021 30.15 850 25.1 16.4 61.4 40 2.9 37.3
06:40 1021 30.15 850 25.1 16.3 61.3 40 2.9 37.1
06:45 1021 30.15 850 25.1 16.3 61.3 41 3 37.4
06:50 1021 30.15 850 25.1 16.3 61.3 41 3 37.4
06:55 1021 30.15 850 25.1 16.3 61.3 41 2.9 37.3
07:00 1021 30.15 850 25.1 16.3 61.4 41 3.1 37.6
07:05 1021 30.15 850 25.1 16.2 61.2 41 3.2 37.7
07:10 1021 30.15 850 25.1 16.3 61.3 41 2.9 37.3
07:15 1021 30.15 850 25.1 16.3 61.3 41 3.3 37.9
07:20 1021 30.15 850 25.1 16.3 61.3 42 3.4 38.2
07:25 1021 30.15 850 25.1 16.6 61.8 41 3.5 38.3
07:30 1021 30.15 850 25.1 16.7 62.1 41 3.6 38.4
07:35 1021 30.15 850 25.1 17 62.5 40 3.5 38.4
07:40 1021 30.15 850 25.1 17.2 63 40 3.7 38.6
07:45 1021 30.15 850 25.1 17.3 63.2 40 3.9 39
07:50 1021 30.15 850 25.1 17.4 63.2 41 4 39.2
07:55 1021 30.15 850 25.1 17.4 63.3 41 4.1 39.4
08:00 1021 30.15 850 25.1 17.5 63.4 41 4.1 39.4
08:05 1021 30.15 850 25.1 17.5 63.5 40 3.9 39
08:10 1021 30.15 850 25.1 17.7 63.8 40 4 39.2
08:15 1021 30.15 850 25.1 17.8 64.1 40 4 39.2
08:20 1021 30.15 850 25.1 18 64.3 39 4 39.3
08:25 1021 30.15 850 25.1 18 64.5 39 4 39.2
08:30 1021 30.15 850 25.1 18.2 64.7 39 4 39.3
08:35 1021 30.15 850 25.1 18.4 65.1 39 4.1 39.5
08:40 1021 30.15 850 25.1 18.6 65.5 38 4.2 39.5
08:45 1021 30.15 850 25.1 19.1 66.3 37 4.2 39.5
08:50 1021 30.15 850 25.1 19.3 66.7 37 4.5 40.1
08:55 1021 30.15 850 25.1 19.6 67.2 37 4.5 40.1
09:00 1021 30.15 850 25.1 19.9 67.7 35 4.1 39.4
09:05 1021 30.15 850 25.1 20.1 68.1 35 4.3 39.7
09:10 1021 30.15 850 25.1 20.4 68.7 35 4.4 39.9
09:15 1021 30.15 850 25.1 20.8 69.4 33 4.1 39.5
09:20 1021 30.15 850 25.1 21 69.8 33 4.2 39.5
09:25 1021 30.15 850 25.1 21.4 70.5 33 4.6 40.3
09:30 1021 30.15 850 25.1 21.8 71.2 32 4.5 40.1
09:35 1021 30.15 850 25.1 22.1 71.7 32 4.8 40.6
09:40 1021 30.15 850 25.1 22.4 72.4 31 4.9 40.8
09:45 1021 30.15 850 25.1 22.9 73.2 31 5.1 41.3
09:50 1021 30.15 850 25.1 22.6 72.7 33 5.9 42.6
09:55 1021 30.15 850 25.1 22.9 73.3 33 6.2 43.1
10:00 1021 30.15 850 25.1 22.7 72.9 34 6.2 43.2
10:05 1021 30.15 850 25.1 23.3 73.9 32 5.7 42.3
10:10 1021 30.15 850 25.1 22.7 72.9 32 5.3 41.6
10:15 1021 30.15 850 25.1 23.3 73.9 32 6 42.8
10:20 1021 30.15 850 25.1 23.7 74.6 30 5.5 41.9
10:25 1021 30.15 850 25.1 23.2 73.7 32 5.9 42.7
10:30 1021 30.15 850 25.1 23.3 73.9 31 5.4 41.7
10:35 1021 30.15 850 25.1 23.5 74.2 32 5.8 42.5
10:40 1021 30.15 850 25.1 23.7 74.6 31 5.8 42.5
10:45 1021 30.15 850 25.1 24 75.1 31 5.8 42.5
10:50 1021 30.15 850 25.1 25.3 77.5 29 6.2 43.2
10:55 1020 30.12 850 25.1 25.5 77.9 28 6 42.8
11:00 1020 30.12 850 25.1 25.6 78.1 28 6.1 42.9
11:05 1020 30.12 850 25.1 25.4 77.6 28 6 42.9
11:10 1020 30.12 849 25.07 26 78.8 28 6.1 43
11:15 1020 30.12 849 25.07 26 78.9 29 6.7 44.1
11:20 1020 30.12 849 25.07 26.4 79.5 27 6.3 43.4
11:25 1020 30.12 849 25.07 26.1 78.9 28 6.3 43.4
11:30 1020 30.12 849 25.07 26.7 80 27 6.4 43.5
11:35 1020 30.12 849 25.07 26.6 80 28 7 44.6
11:40 1020 30.12 849 25.07 27.3 81.1 27 7.1 44.7
11:45 1020 30.12 849 25.07 27.8 82.1 27 7.2 45
11:50 1020 30.12 849 25.07 28 82.5 25 6.6 44
11:55 1020 30.12 849 25.07 28.3 82.9 24 6.3 43.4
12:00 1020 30.12 849 25.07 29.5 85.2 23 6.3 43.3
12:05 1020 30.12 849 25.07 30 86 22 6.2 43.1
12:10 1020 30.12 849 25.07 29.3 84.7 23 6.4 43.6
12:15 1020 30.12 849 25.07 28.5 83.4 24 6.3 43.4
12:20 1019 30.09 849 25.07 29.2 84.5 22 5.5 41.9
12:25 1019 30.09 849 25.07 29.5 85 22 5.7 42.2
12:30 1019 30.09 849 25.07 29.7 85.4 21 5.3 41.6
12:35 1019 30.09 848 25.04 30.6 87.1 20 5.2 41.3
12:40 1019 30.09 848 25.04 30.4 86.7 20 5.4 41.7
12:45 1019 30.09 848 25.04 30.5 86.9 18 3.5 38.4
12:50 1019 30.09 848 25.04 31.5 88.7 17 3.9 39
12:55 1019 30.09 848 25.04 31.5 88.6 16 3.3 38
13:00 1019 30.09 848 25.04 31.8 89.2 16 2.9 37.1
13:05 1019 30.09 848 25.04 30.9 87.6 16 2.7 36.9
13:10 1019 30.09 848 25.04 30.6 87 15 1.8 35.3
13:15 1019 30.09 848 25.04 31.4 88.4 15 2.2 36
13:20 1019 30.09 848 25.04 31.8 89.2 15 2.4 36.2
13:25 1019 30.09 848 25.04 31.8 89.3 15 2.6 36.7
13:30 1019 30.09 848 25.04 32.6 90.7 15 2.7 36.9
13:35 1019 30.09 848 25.04 33.2 91.8 15 3.7 38.6
13:40 1019 30.09 848 25.04 33.2 91.8 15 3.9 39
13:45 1018 30.06 848 25.04 32.5 90.6 16 3.5 38.4
13:50 1018 30.06 848 25.04 32 89.5 15 2.6 36.7
13:55 1018 30.06 848 25.04 32.6 90.7 15 2.9 37.2
14:00 1018 30.06 848 25.04 32.8 91.1 15 3.6 38.4
14:05 1018 30.06 848 25.04 31.7 89.1 15 2.5 36.6
14:10 1018 30.06 848 25.04 31.4 88.5 17 3.5 38.3
14:15 1018 30.06 848 25.04 31.9 89.4 16 3.2 37.7
14:20 1018 30.06 848 25.04 32.2 89.9 16 3.2 37.8
14:25 1018 30.06 848 25.04 32.9 91.3 15 3.4 38.1
14:30 1018 30.06 847 25.01 32.5 90.4 15 3.3 37.9
14:35 1018 30.06 847 25.01 32 89.7 15 2.7 36.9
14:40 1018 30.06 847 25.01 32.8 91 15 3.4 38.1
14:45 1018 30.06 847 25.01 32 89.7 15 2.8 37
14:50 1018 30.06 847 25.01 31.4 88.4 15 2.2 35.9
14:55 1018 30.06 847 25.01 31 87.8 15 1.8 35.3
15:00 1018 30.06 847 25.01 31.9 89.4 16 2.9 37.3
15:05 1018 30.06 847 25.01 32.2 90 15 2.9 37.3
15:10 1018 30.06 847 25.01 31.6 88.9 15 2.2 35.9
15:15 1018 30.06 847 25.01 32.1 89.8 15 2.3 36.2
15:20 1018 30.06 847 25.01 32.5 90.5 16 3.6 38.5
15:25 1018 30.06 847 25.01 32.6 90.6 16 3.6 38.5
15:30 1018 30.06 847 25.01 33 91.3 15 3.5 38.4
15:35 1018 30.06 847 25.01 32.9 91.2 15 3 37.4
15:40 1018 30.06 847 25.01 32 89.6 15 2.2 36
15:45 1018 30.06 847 25.01 31.9 89.4 14 2 35.5
15:50 1018 30.06 847 25.01 32 89.7 14 1.7 35
15:55 1018 30.06 847 25.01 32.3 90.2 13 0.9 33.7
16:00 1018 30.06 847 25.01 33.1 91.6 13 1.1 33.9
16:05 1018 30.06 847 25.01 33.5 92.2 13 1.6 34.8
16:10 1018 30.06 847 25.01 33.4 92.1 13 1.1 34
16:15 1018 30.06 847 25.01 33 91.3 13 1.3 34.3
16:20 1018 30.06 847 25.01 32.7 90.9 13 1 33.7
16:25 1018 30.06 847 25.01 32.3 90.2 12 0.1 32.1
16:30 1018 30.06 847 25.01 32.1 89.8 12 -0.2 31.6
16:35 1018 30.06 847 25.01 32 89.5 12 -0.7 30.7
16:40 1018 30.06 847 25.01 32 89.6 12 -0.3 31.5
16:45 1017 30.03 847 25.01 32.6 90.7 12 0.1 32.2
16:50 1017 30.03 847 25.01 32.5 90.6 12 0.4 32.7
16:55 1017 30.03 847 25.01 32.9 91.3 13 1.5 34.7
17:00 1017 30.03 847 25.01 33.2 91.8 13 1.2 34.2
17:05 1017 30.03 847 25.01 33.3 91.9 12 0.8 33.4
17:10 1017 30.03 846 24.98 33.4 92.2 12 1 33.8
17:15 1017 30.03 846 24.98 33.5 92.3 13 1.7 35
17:20 1017 30.03 846 24.98 33.5 92.4 12 0.7 33.3
17:25 1017 30.03 846 24.98 33.3 91.9 13 1.2 34.2
17:30 1017 30.03 846 24.98 33.1 91.5 12 0.7 33.2
17:35 1017 30.03 846 24.98 33.1 91.5 13 1.3 34.4
17:40 1017 30.03 846 24.98 33.1 91.5 12 0.6 33.1
17:45 1017 30.03 846 24.98 33 91.3 13 0.8 33.5
17:50 1017 30.03 846 24.98 33.1 91.6 12 0.5 32.9
17:55 1017 30.03 846 24.98 33.3 91.9 12 0.7 33.3
18:00 1017 30.03 846 24.98 33.4 92.2 12 1 33.9
18:05 1017 30.03 846 24.98 33.4 92 12 0.5 33
18:10 1017 30.03 846 24.98 33.3 92 12 0.6 33.1
18:15 1017 30.03 846 24.98 33.2 91.8 12 0.5 33
18:20 1017 30.03 846 24.98 33.3 91.9 12 0.8 33.4
18:25 1017 30.03 846 24.98 32.6 90.7 12 0.3 32.6
18:30 1017 30.03 846 24.98 32.2 89.9 13 0.1 32.2
18:35 1017 30.03 846 24.98 31.9 89.5 13 0.9 33.6
18:40 1017 30.03 846 24.98 31.8 89.2 13 0.6 33.2
18:45 1017 30.03 846 24.98 31.7 89.1 13 -0.1 31.7
18:50 1017 30.03 846 24.98 31.7 89 13 0.2 32.4
18:55 1017 30.03 846 24.98 31.6 88.8 13 0.2 32.3
19:00 1017 30.03 846 24.98 31.5 88.7 13 0.3 32.6
19:05 1017 30.03 846 24.98 31.3 88.3 14 0.5 32.9
19:10 1017 30.03 846 24.98 31.2 88.1 14 1.2 34.1
19:15 1017 30.03 846 24.98 30.9 87.7 14 1 33.8
19:20 1017 30.03 846 24.98 30.8 87.4 15 1.5 34.6
19:25 1017 30.03 846 24.98 30.5 87 15 0.9 33.6
19:30 1017 30.03 846 24.98 30.3 86.6 15 1.3 34.4
19:35 1017 30.03 846 24.98 30.1 86.2 15 1.3 34.4
19:40 1017 30.03 846 24.98 29.8 85.6 18 3.1 37.6
19:45 1017 30.03 846 24.98 29.2 84.6 16 0.9 33.6
19:50 1017 30.03 846 24.98 29.1 84.4 18 2.6 36.6
19:55 1017 30.03 846 24.98 29 84.1 17 1.6 34.8
20:00 1017 30.03 846 24.98 28.3 82.9 22 4.9 40.9
20:05 1017 30.03 846 24.98 27.3 81.2 26 6.4 43.6
20:10 1017 30.03 846 24.98 26.2 79.1 29 7 44.7
20:15 1017 30.03 846 24.98 25.3 77.6 26 4.6 40.3
20:20 1017 30.03 846 24.98 24.8 76.7 26 4.4 40
20:25 1017 30.03 846 24.98 24.7 76.4 26 3.9 39.1
20:30 1017 30.03 846 24.98 24.1 75.4 29 5.2 41.4
20:35 1017 30.03 846 24.98 23.8 74.8 27 4.1 39.3
20:40 1017 30.03 846 24.98 23.7 74.6 28 4.1 39.4
20:45 1017 30.03 846 24.98 23.6 74.5 27 3.9 39
20:50 1017 30.03 846 24.98 23.5 74.3 27 3.5 38.2
20:55 1017 30.03 846 24.98 23.1 73.6 28 3.6 38.4
21:00 1017 30.03 847 25.01 22.6 72.8 28 3.5 38.3
21:05 1017 30.03 847 25.01 22.5 72.5 28 3.3 37.9
21:10 1017 30.03 847 25.01 22.5 72.5 29 3.8 38.8
21:15 1017 30.03 847 25.01 22.6 72.7 27 2.8 37
21:20 1017 30.03 847 25.01 22.7 72.8 26 2.4 36.2
21:25 1018 30.06 847 25.01 22.7 72.8 25 2 35.6
21:30 1018 30.06 847 25.01 22.9 73.2 23 1.1 34
21:35 1018 30.06 847 25.01 23.5 74.2 22 0.6 33.1
21:40 1018 30.06 847 25.01 23.5 74.3 22 0.8 33.4
21:45 1018 30.06 847 25.01 23.6 74.4 22 0.9 33.5
21:50 1018 30.06 847 25.01 23.7 74.7 22 1.2 34.1
21:55 1018 30.06 847 25.01 23.9 74.9 22 1.3 34.3
22:00 1018 30.06 847 25.01 23.8 74.9 23 1.7 35.1
22:05 1018 30.06 847 25.01 23.5 74.2 26 3.3 37.9
22:10 1018 30.06 847 25.01 23 73.4 26 2.8 37.1
22:15 1018 30.06 847 25.01 23 73.5 27 3.1 37.7
22:20 1018 30.06 847 25.01 23 73.4 25 1.9 35.5
22:25 1018 30.06 847 25.01 23.4 74.1 23 1.6 34.9
22:30 1018 30.06 847 25.01 24 75.1 22 1.2 34.1
22:35 1018 30.06 847 25.01 24.4 75.8 22 1.5 34.6
22:40 1018 30.06 847 25.01 24.4 76 23 2.2 35.9
22:45 1018 30.06 847 25.01 24.1 75.3 27 4 39.2
22:50 1018 30.06 847 25.01 23.4 74.1 27 3.3 38
22:55 1018 30.06 848 25.04 23 73.3 28 3.7 38.7
23:00 1018 30.06 848 25.04 22.8 73 30 4.5 40.1
23:05 1018 30.06 848 25.04 22.6 72.6 28 3.3 38
23:10 1019 30.09 848 25.04 22.9 73.3 30 4.7 40.5
23:15 1019 30.09 848 25.04 22.9 73.2 30 4.8 40.6
23:20 1019 30.09 848 25.04 22.3 72.2 31 4.7 40.4
23:25 1019 30.09 848 25.04 21.5 70.8 30 3.6 38.5
23:30 1019 30.09 848 25.04 21.6 70.9 29 3.2 37.7
23:35 1019 30.09 848 25.04 21.7 71 31 4.2 39.6
23:40 1019 30.09 848 25.04 21.6 70.9 31 4 39.2
23:45 1019 30.09 848 25.04 21.7 71.1 33 4.8 40.6
23:50 1019 30.09 848 25.04 21.8 71.2 29 3 37.4
23:55 1019 30.09 848 25.04 21.8 71.3 29 3.3 37.9
24:00 1019 30.09 848 25.04 21.4 70.6 32 4.4 39.9